createdAt,value
2022-10-18T00:00:00.838Z,102061.00
2022-10-18T00:02:27.447Z,102053.06
2022-10-18T00:04:53.951Z,102053.53
2022-10-18T00:07:20.462Z,102051.16
2022-10-18T00:09:46.973Z,102054.31
2022-10-18T00:12:13.524Z,102051.75
2022-10-18T00:14:40.073Z,102051.50
2022-10-18T00:17:06.593Z,102065.00
2022-10-18T00:19:33.111Z,102068.31
2022-10-18T00:21:59.617Z,102070.47
2022-10-18T00:24:26.156Z,102069.84
2022-10-18T00:26:52.676Z,102062.75
2022-10-18T00:29:19.501Z,102066.47
2022-10-18T00:31:46.011Z,102076.22
2022-10-18T00:34:15.309Z,102072.56
2022-10-18T00:36:43.256Z,102081.00
2022-10-18T00:39:15.311Z,102073.16
2022-10-18T00:41:41.886Z,102083.88
2022-10-18T00:44:11.137Z,102092.50
2022-10-18T00:46:39.949Z,102107.75
2022-10-18T00:49:41.639Z,102098.88
2022-10-18T00:52:10.951Z,102096.28
2022-10-18T00:54:41.410Z,102088.03
2022-10-18T00:57:08.533Z,102089.47
2022-10-18T00:59:36.017Z,102094.06
2022-10-18T01:02:03.322Z,102085.06
2022-10-18T01:04:29.909Z,102083.00
2022-10-18T01:07:08.301Z,102084.63
2022-10-18T01:09:40.864Z,102086.28
2022-10-18T01:12:34.037Z,102094.00
2022-10-18T01:15:05.817Z,102096.00
2022-10-18T01:17:58.803Z,102092.69
2022-10-18T01:20:54.564Z,102096.63
2022-10-18T01:24:07.212Z,102093.78
2022-10-18T01:26:48.156Z,102098.41
2022-10-18T01:29:44.725Z,102090.75
2022-10-18T01:32:22.923Z,102090.63
2022-10-18T01:34:54.567Z,102095.22
2022-10-18T01:37:22.410Z,102102.56
2022-10-18T01:39:54.456Z,102111.13
2022-10-18T01:42:21.587Z,102105.13
2022-10-18T01:44:52.236Z,102112.16
2022-10-18T01:47:20.176Z,102107.72
2022-10-18T01:49:46.737Z,102105.59
2022-10-18T01:52:14.600Z,102097.31
2022-10-18T01:54:44.683Z,102095.91
2022-10-18T01:57:24.761Z,102101.00
2022-10-18T02:00:14.107Z,102106.81
2022-10-18T02:02:58.773Z,102098.81
2022-10-18T02:05:40.298Z,102100.00
2022-10-18T02:08:30.801Z,102102.47
2022-10-18T02:10:59.991Z,102097.69
2022-10-18T02:13:31.410Z,102104.63
2022-10-18T02:16:04.924Z,102098.44
2022-10-18T02:18:38.861Z,102101.31
2022-10-18T02:21:10.586Z,102099.34
2022-10-18T02:23:38.956Z,102111.28
2022-10-18T02:26:06.649Z,102101.59
2022-10-18T02:28:33.193Z,102104.56
2022-10-18T02:31:31.005Z,102100.97
2022-10-18T02:34:02.524Z,102102.63
2022-10-18T02:36:35.915Z,102096.13
2022-10-18T02:39:07.568Z,102100.03
2022-10-18T02:41:34.327Z,102097.91
2022-10-18T02:44:02.961Z,102107.75
2022-10-18T02:46:29.547Z,102098.78
2022-10-18T02:48:56.094Z,102103.53
2022-10-18T02:51:23.710Z,102090.75
2022-10-18T02:53:50.168Z,102084.28
2022-10-18T02:56:16.772Z,102080.06
2022-10-18T02:58:43.332Z,102083.81
2022-10-18T03:01:10.882Z,102087.09
2022-10-18T03:03:38.448Z,102086.47
2022-10-18T03:06:06.622Z,102088.25
2022-10-18T03:08:33.126Z,102082.44
2022-10-18T03:10:59.597Z,102081.19
2022-10-18T03:13:26.175Z,102078.63
2022-10-18T03:15:52.713Z,102078.19
2022-10-18T03:18:19.203Z,102082.91
2022-10-18T03:20:45.714Z,102080.63
2022-10-18T03:23:12.278Z,102083.78
2022-10-18T03:25:40.573Z,102079.34
2022-10-18T03:28:09.411Z,102082.44
2022-10-18T03:30:35.886Z,102084.25
2022-10-18T03:33:02.407Z,102088.88
2022-10-18T03:35:28.900Z,102073.75
2022-10-18T03:37:55.391Z,102070.22
2022-10-18T03:40:21.990Z,102077.22
2022-10-18T03:42:48.553Z,102079.44
2022-10-18T03:45:15.224Z,102082.97
2022-10-18T03:47:41.725Z,102084.94
2022-10-18T03:50:08.643Z,102090.50
2022-10-18T03:52:35.168Z,102079.78
2022-10-18T03:55:01.773Z,102088.91
2022-10-18T03:57:28.263Z,102082.31
2022-10-18T03:59:54.857Z,102068.72
2022-10-18T04:02:21.590Z,102071.78
2022-10-18T04:04:48.275Z,102071.16
2022-10-18T04:07:15.577Z,102067.59
2022-10-18T04:09:42.168Z,102065.94
2022-10-18T04:12:08.629Z,102062.69
2022-10-18T04:14:35.371Z,102066.13
2022-10-18T04:17:02.036Z,102070.69
2022-10-18T04:19:28.650Z,102072.13
2022-10-18T04:21:55.350Z,102070.19
2022-10-18T04:24:21.893Z,102059.69
2022-10-18T04:26:48.428Z,102058.88
2022-10-18T04:29:14.990Z,102066.44
2022-10-18T04:31:41.524Z,102063.47
2022-10-18T04:34:08.965Z,102052.06
2022-10-18T04:36:35.533Z,102068.44
2022-10-18T04:39:02.066Z,102058.50
2022-10-18T04:41:28.708Z,102059.16
2022-10-18T04:43:55.203Z,102063.13
2022-10-18T04:46:22.597Z,102059.69
2022-10-18T04:48:49.100Z,102053.78
2022-10-18T04:51:15.631Z,102049.22
2022-10-18T04:53:42.080Z,102051.78
2022-10-18T04:56:08.800Z,102044.63
2022-10-18T04:58:35.317Z,102048.41
2022-10-18T05:01:05.512Z,102045.47
2022-10-18T05:03:32.321Z,102058.03
2022-10-18T05:06:02.699Z,102060.22
2022-10-18T05:08:31.063Z,102058.88
2022-10-18T05:10:57.717Z,102063.69
2022-10-18T05:13:24.771Z,102052.59
2022-10-18T05:15:51.968Z,102062.47
2022-10-18T05:18:18.535Z,102067.16
2022-10-18T05:20:45.069Z,102062.44
2022-10-18T05:23:11.642Z,102056.00
2022-10-18T05:25:39.638Z,102057.50
2022-10-18T05:28:11.063Z,102050.88
2022-10-18T05:30:47.871Z,102048.28
2022-10-18T05:33:14.417Z,102047.31
2022-10-18T05:35:40.928Z,102046.75
2022-10-18T05:38:10.021Z,102047.78
2022-10-18T05:40:39.532Z,102062.16
2022-10-18T05:43:06.048Z,102055.41
2022-10-18T05:45:32.540Z,102063.38
2022-10-18T05:47:59.100Z,102064.22
2022-10-18T05:50:25.658Z,102060.91
2022-10-18T05:53:02.692Z,102069.06
2022-10-18T05:55:38.585Z,102076.34
2022-10-18T05:58:05.187Z,102068.56
2022-10-18T06:00:31.735Z,102073.66
2022-10-18T06:03:00.282Z,102066.69
2022-10-18T06:05:27.985Z,102068.94
2022-10-18T06:07:58.380Z,102075.44
2022-10-18T06:10:25.327Z,102077.34
2022-10-18T06:12:51.875Z,102069.97
2022-10-18T06:15:18.431Z,102061.81
2022-10-18T06:17:44.991Z,102064.63
2022-10-18T06:20:11.538Z,102080.03
2022-10-18T06:22:38.025Z,102074.13
2022-10-18T06:25:04.768Z,102070.09
2022-10-18T06:27:33.966Z,102067.28
2022-10-18T06:30:00.870Z,102070.72
2022-10-18T06:32:27.342Z,102073.75
2022-10-18T06:34:53.866Z,102075.78
2022-10-18T06:37:20.327Z,102068.38
2022-10-18T06:39:46.872Z,102068.34
2022-10-18T06:42:13.358Z,102074.56
2022-10-18T06:44:39.871Z,102070.44
2022-10-18T06:47:07.769Z,102068.75
2022-10-18T06:49:34.312Z,102081.47
2022-10-18T06:52:00.888Z,102089.19
2022-10-18T06:54:27.523Z,102086.06
2022-10-18T06:56:57.086Z,102080.81
2022-10-18T06:59:25.271Z,102081.03
2022-10-18T07:01:54.204Z,102093.13
2022-10-18T07:04:20.809Z,102095.63
2022-10-18T07:06:47.374Z,102110.03
2022-10-18T07:09:13.875Z,102104.00
2022-10-18T07:11:40.430Z,102112.44
2022-10-18T07:14:07.315Z,102112.97
2022-10-18T07:16:34.491Z,102122.97
2022-10-18T07:19:01.160Z,102113.13
2022-10-18T07:21:27.775Z,102116.06
2022-10-18T07:23:54.556Z,102107.84
2022-10-18T07:26:24.878Z,102107.88
2022-10-18T07:29:04.760Z,102112.41
2022-10-18T07:31:31.386Z,102117.25
2022-10-18T07:33:58.196Z,102112.28
2022-10-18T07:36:25.584Z,102114.34
2022-10-18T07:38:52.948Z,102127.47
2022-10-18T07:41:19.954Z,102125.13
2022-10-18T07:43:48.666Z,102108.47
2022-10-18T07:46:15.585Z,102112.75
2022-10-18T07:48:42.228Z,102124.38
2022-10-18T07:51:09.099Z,102130.53
2022-10-18T07:53:36.245Z,102124.56
2022-10-18T07:56:08.741Z,102126.19
2022-10-18T07:58:36.077Z,102122.09
2022-10-18T08:01:04.623Z,102118.44
2022-10-18T08:03:31.368Z,102120.72
2022-10-18T08:05:57.973Z,102119.75
2022-10-18T08:08:25.157Z,102135.41
2022-10-18T08:10:52.202Z,102133.97
2022-10-18T08:13:19.073Z,102131.59
2022-10-18T08:15:46.083Z,102127.16
2022-10-18T08:18:13.169Z,102125.38
2022-10-18T08:20:44.787Z,102122.75
2022-10-18T08:23:11.983Z,102131.00
2022-10-18T08:25:38.686Z,102127.91
2022-10-18T08:28:05.370Z,102112.31
2022-10-18T08:30:31.884Z,102126.47
2022-10-18T08:32:58.437Z,102115.53
2022-10-18T08:35:25.040Z,102114.38
2022-10-18T08:37:51.591Z,102119.84
2022-10-18T08:40:18.447Z,102115.72
2022-10-18T08:43:00.719Z,102110.78
2022-10-18T08:45:41.990Z,102112.56
2022-10-18T08:48:22.014Z,102113.63
2022-10-18T08:50:50.861Z,102125.38
2022-10-18T08:53:27.924Z,102128.97
2022-10-18T08:56:15.147Z,102116.22
2022-10-18T08:58:44.940Z,102127.50
2022-10-18T09:01:29.750Z,102126.19
2022-10-18T09:04:11.430Z,102132.13
2022-10-18T09:07:13.647Z,102127.66
2022-10-18T09:10:01.865Z,102135.97
2022-10-18T09:12:37.408Z,102133.47
2022-10-18T09:15:15.983Z,102134.94
2022-10-18T09:17:57.264Z,102137.88
2022-10-18T09:20:27.464Z,102133.16
2022-10-18T09:22:57.113Z,102130.91
2022-10-18T09:25:36.429Z,102129.03
2022-10-18T09:28:31.114Z,102127.47
2022-10-18T09:31:03.818Z,102118.41
2022-10-18T09:33:33.332Z,102120.78
2022-10-18T09:36:06.212Z,102115.03
2022-10-18T09:38:41.789Z,102119.13
2022-10-18T09:41:15.229Z,102128.06
2022-10-18T09:43:58.863Z,102122.88
2022-10-18T09:46:32.251Z,102130.13
2022-10-18T09:49:02.337Z,102113.47
2022-10-18T09:51:36.356Z,102112.72
2022-10-18T09:54:13.510Z,102112.31
2022-10-18T09:56:48.941Z,102120.97
2022-10-18T09:59:27.884Z,102112.19
2022-10-18T10:01:54.561Z,102112.38
2022-10-18T10:04:21.065Z,102104.75
2022-10-18T10:06:53.101Z,102107.13
2022-10-18T10:09:36.122Z,102102.84
2022-10-18T10:12:02.828Z,102089.09
2022-10-18T10:14:30.739Z,102087.66
2022-10-18T10:17:22.530Z,102089.47
2022-10-18T10:20:10.981Z,102092.84
2022-10-18T10:22:40.275Z,102087.19
2022-10-18T10:25:18.945Z,102096.47
2022-10-18T10:27:46.293Z,102094.50
2022-10-18T10:30:34.187Z,102095.06
2022-10-18T10:33:01.344Z,102105.81
2022-10-18T10:35:52.536Z,102106.03
2022-10-18T10:38:25.755Z,102112.13
2022-10-18T10:40:52.865Z,102104.19
2022-10-18T10:43:39.131Z,102107.69
2022-10-18T10:46:13.943Z,102109.84
2022-10-18T10:48:50.830Z,102110.78
2022-10-18T10:51:38.966Z,102112.28
2022-10-18T10:54:11.802Z,102127.69
2022-10-18T10:56:59.161Z,102115.91
2022-10-18T10:59:29.930Z,102121.78
2022-10-18T11:02:17.654Z,102127.44
2022-10-18T11:04:46.628Z,102124.22
2022-10-18T11:07:27.402Z,102121.88
2022-10-18T11:10:20.277Z,102117.69
2022-10-18T11:13:02.315Z,102130.19
2022-10-18T11:15:47.294Z,102133.97
2022-10-18T11:18:19.954Z,102124.28
2022-10-18T11:21:25.270Z,102133.09
2022-10-18T11:23:51.942Z,102133.94
2022-10-18T11:26:24.551Z,102131.78
2022-10-18T11:29:18.895Z,102126.31
2022-10-18T11:32:15.294Z,102134.47
2022-10-18T11:35:29.542Z,102130.53
2022-10-18T11:38:02.060Z,102130.47
2022-10-18T11:40:44.632Z,102121.97
2022-10-18T11:43:30.340Z,102130.41
2022-10-18T11:46:21.465Z,102126.84
2022-10-18T11:49:07.544Z,102123.66
2022-10-18T11:52:07.905Z,102129.53
2022-10-18T11:54:57.635Z,102132.91
2022-10-18T11:57:39.410Z,102125.94
2022-10-18T12:00:12.106Z,102130.75
2022-10-18T12:02:57.261Z,102128.56
2022-10-18T12:05:25.144Z,102127.50
2022-10-18T12:07:51.753Z,102125.16
2022-10-18T12:10:31.497Z,102127.81
2022-10-18T12:13:12.878Z,102123.56
2022-10-18T12:15:40.702Z,102122.97
2022-10-18T12:18:13.321Z,102119.50
2022-10-18T12:20:53.643Z,102120.94
2022-10-18T12:23:26.163Z,102111.78
2022-10-18T12:26:02.076Z,102111.28
2022-10-18T12:28:34.740Z,102110.47
2022-10-18T12:31:10.394Z,102114.59
2022-10-18T12:33:44.339Z,102105.44
2022-10-18T12:36:40.941Z,102102.78
2022-10-18T12:39:14.732Z,102096.78
2022-10-18T12:41:41.468Z,102106.19
2022-10-18T12:44:17.733Z,102107.38
2022-10-18T12:46:51.595Z,102113.28
2022-10-18T12:49:28.553Z,102108.25
2022-10-18T12:51:59.567Z,102118.22
2022-10-18T12:54:33.356Z,102115.16
2022-10-18T12:57:01.357Z,102119.66
2022-10-18T12:59:27.785Z,102126.31
2022-10-18T13:01:54.303Z,102128.75
2022-10-18T13:04:33.665Z,102121.59
2022-10-18T13:07:32.853Z,102125.44
2022-10-18T13:10:12.764Z,102116.44
2022-10-18T13:12:54.500Z,102120.28
2022-10-18T13:15:46.459Z,102126.09
2022-10-18T13:18:44.843Z,102124.13
2022-10-18T13:21:20.375Z,102113.06
2022-10-18T13:24:27.588Z,102114.09
2022-10-18T13:27:35.421Z,102102.00
2022-10-18T13:30:26.381Z,102115.84
2022-10-18T13:32:52.777Z,102116.16
2022-10-18T13:35:57.052Z,102114.75
2022-10-18T13:38:29.255Z,102118.66
2022-10-18T13:41:20.668Z,102123.63
2022-10-18T13:43:56.073Z,102120.78
2022-10-18T13:46:45.585Z,102120.47
2022-10-18T13:49:33.247Z,102110.56
2022-10-18T13:51:59.702Z,102118.78
2022-10-18T13:54:46.910Z,102114.13
2022-10-18T13:57:37.904Z,102115.38
2022-10-18T14:00:48.970Z,102105.63
2022-10-18T14:03:57.015Z,102104.75
2022-10-18T14:06:28.211Z,102102.41
2022-10-18T14:09:13.786Z,102108.72
2022-10-18T14:11:53.865Z,102118.31
2022-10-18T14:14:29.950Z,102121.84
2022-10-18T14:17:08.585Z,102112.88
2022-10-18T14:19:50.745Z,102120.41
2022-10-18T14:22:35.174Z,102114.00
2022-10-18T14:25:01.878Z,102113.44
2022-10-18T14:27:32.550Z,102108.59
2022-10-18T14:30:15.981Z,102117.78
2022-10-18T14:32:48.432Z,102117.72
2022-10-18T14:35:32.165Z,102121.28
2022-10-18T14:37:59.907Z,102134.00
2022-10-18T14:40:34.919Z,102139.63
2022-10-18T14:43:11.438Z,102137.53
2022-10-18T14:45:38.357Z,102133.63
2022-10-18T14:48:14.667Z,102137.75
2022-10-18T14:50:42.706Z,102129.56
2022-10-18T14:53:16.267Z,102134.47
2022-10-18T14:55:43.136Z,102134.50
2022-10-18T14:58:16.037Z,102132.09
2022-10-18T15:00:45.122Z,102130.78
2022-10-18T15:03:16.952Z,102135.03
2022-10-18T15:05:59.468Z,102130.19
2022-10-18T15:08:43.234Z,102126.97
2022-10-18T15:11:14.339Z,102129.75
2022-10-18T15:13:56.579Z,102127.03
2022-10-18T15:16:26.958Z,102118.78
2022-10-18T15:19:14.644Z,102132.22
2022-10-18T15:22:08.095Z,102137.56
2022-10-18T15:24:41.381Z,102126.50
2022-10-18T15:27:29.068Z,102125.59
2022-10-18T15:29:55.954Z,102134.75
2022-10-18T15:32:29.288Z,102129.75
2022-10-18T15:35:08.399Z,102126.44
2022-10-18T15:37:41.947Z,102124.06
2022-10-18T15:40:23.699Z,102129.91
2022-10-18T15:42:55.223Z,102124.75
2022-10-18T15:45:24.557Z,102131.25
2022-10-18T15:48:06.326Z,102129.91
2022-10-18T15:50:44.480Z,102123.81
2022-10-18T15:53:20.156Z,102116.78
2022-10-18T15:56:03.040Z,102112.81
2022-10-18T15:58:29.588Z,102121.19
2022-10-18T16:00:59.182Z,102118.78
2022-10-18T16:03:26.801Z,102123.03
2022-10-18T16:05:58.672Z,102123.81
2022-10-18T16:08:31.840Z,102118.97
2022-10-18T16:10:59.299Z,102127.75
2022-10-18T16:13:27.012Z,102112.22
2022-10-18T16:15:55.721Z,102114.19
2022-10-18T16:18:23.725Z,102115.59
2022-10-18T16:20:50.232Z,102125.34
2022-10-18T16:23:20.520Z,102126.75
2022-10-18T16:25:47.303Z,102125.31
2022-10-18T16:28:20.784Z,102119.88
2022-10-18T16:30:53.984Z,102122.19
2022-10-18T16:33:21.716Z,102123.47
2022-10-18T16:35:48.858Z,102123.44
2022-10-18T16:38:24.145Z,102130.34
2022-10-18T16:40:50.636Z,102125.47
2022-10-18T16:43:17.246Z,102121.16
2022-10-18T16:45:43.799Z,102133.31
2022-10-18T16:48:14.910Z,102130.69
2022-10-18T16:50:41.825Z,102133.00
2022-10-18T16:53:08.499Z,102144.97
2022-10-18T16:55:35.511Z,102147.25
2022-10-18T16:58:02.151Z,102138.88
2022-10-18T17:00:28.994Z,102150.09
2022-10-18T17:02:55.783Z,102149.97
2022-10-18T17:05:23.347Z,102150.41
2022-10-18T17:07:50.136Z,102151.44
2022-10-18T17:10:20.021Z,102158.34
2022-10-18T17:12:46.866Z,102156.22
2022-10-18T17:15:13.415Z,102156.16
2022-10-18T17:17:42.278Z,102168.72
2022-10-18T17:20:12.032Z,102177.84
2022-10-18T17:22:38.570Z,102173.16
2022-10-18T17:25:05.406Z,102170.00
2022-10-18T17:27:32.318Z,102179.44
2022-10-18T17:29:59.169Z,102177.38
2022-10-18T17:32:25.738Z,102184.00
2022-10-18T17:34:52.267Z,102182.34
2022-10-18T17:37:18.856Z,102178.78
2022-10-18T17:39:45.554Z,102178.47
2022-10-18T17:42:12.136Z,102176.19
2022-10-18T17:44:38.710Z,102176.84
2022-10-18T17:47:05.384Z,102173.66
2022-10-18T17:49:31.929Z,102184.72
2022-10-18T17:52:01.104Z,102191.25
2022-10-18T17:54:29.854Z,102178.50
2022-10-18T17:56:56.495Z,102186.25
2022-10-18T17:59:23.328Z,102191.97
2022-10-18T18:01:49.955Z,102192.16
2022-10-18T18:04:19.507Z,102196.50
2022-10-18T18:06:48.926Z,102202.78
2022-10-18T18:09:16.536Z,102209.06
2022-10-18T18:11:44.561Z,102205.09
2022-10-18T18:14:11.999Z,102211.38
2022-10-18T18:16:41.493Z,102218.34
2022-10-18T18:19:09.958Z,102220.78
2022-10-18T18:21:37.435Z,102211.88
2022-10-18T18:24:04.224Z,102215.44
2022-10-18T18:26:32.675Z,102211.50
2022-10-18T18:28:59.566Z,102214.16
2022-10-18T18:31:27.606Z,102220.28
2022-10-18T18:33:57.630Z,102222.69
2022-10-18T18:36:28.803Z,102221.53
2022-10-18T18:38:57.816Z,102220.91
2022-10-18T18:41:26.038Z,102217.81
2022-10-18T18:43:55.599Z,102208.94
2022-10-18T18:46:23.509Z,102211.97
2022-10-18T18:48:50.047Z,102209.91
2022-10-18T18:51:19.148Z,102210.84
2022-10-18T18:53:47.028Z,102209.63
2022-10-18T18:56:23.770Z,102196.19
2022-10-18T18:58:51.936Z,102196.03
2022-10-18T19:01:22.279Z,102192.56
2022-10-18T19:03:50.478Z,102198.03
2022-10-18T19:06:20.004Z,102200.38
2022-10-18T19:08:47.321Z,102211.88
2022-10-18T19:11:16.641Z,102204.94
2022-10-18T19:13:43.588Z,102209.94
2022-10-18T19:16:17.647Z,102216.63
2022-10-18T19:18:49.233Z,102216.00
2022-10-18T19:21:15.700Z,102210.56
2022-10-18T19:23:42.198Z,102217.34
2022-10-18T19:26:11.116Z,102217.09
2022-10-18T19:28:37.855Z,102210.69
2022-10-18T19:31:05.354Z,102217.78
2022-10-18T19:33:41.495Z,102211.94
2022-10-18T19:36:18.491Z,102214.09
2022-10-18T19:38:45.045Z,102224.78
2022-10-18T19:41:11.943Z,102225.97
2022-10-18T19:43:38.464Z,102220.91
2022-10-18T19:46:05.716Z,102226.31
2022-10-18T19:48:32.431Z,102235.38
2022-10-18T19:51:09.028Z,102227.91
2022-10-18T19:53:36.769Z,102231.03
2022-10-18T19:56:05.138Z,102227.53
2022-10-18T19:58:32.164Z,102231.28
2022-10-18T20:01:00.182Z,102229.56
2022-10-18T20:03:30.257Z,102251.00
2022-10-18T20:05:59.007Z,102235.94
2022-10-18T20:08:27.007Z,102242.31
2022-10-18T20:10:53.790Z,102243.66
2022-10-18T20:13:21.002Z,102233.59
2022-10-18T20:15:51.328Z,102238.16
2022-10-18T20:18:19.649Z,102237.53
2022-10-18T20:20:48.266Z,102240.84
2022-10-18T20:23:16.671Z,102243.03
2022-10-18T20:25:43.945Z,102250.72
2022-10-18T20:28:10.419Z,102255.72
2022-10-18T20:30:36.995Z,102257.38
2022-10-18T20:33:03.623Z,102256.16
2022-10-18T20:35:30.177Z,102262.38
2022-10-18T20:37:56.727Z,102265.94
2022-10-18T20:40:23.257Z,102265.78
2022-10-18T20:42:51.561Z,102260.31
2022-10-18T20:45:18.195Z,102260.41
2022-10-18T20:47:44.832Z,102253.13
2022-10-18T20:50:11.351Z,102248.91
2022-10-18T20:52:37.879Z,102252.84
2022-10-18T20:55:04.880Z,102259.03
2022-10-18T20:57:34.171Z,102255.16
2022-10-18T21:00:03.708Z,102251.78
2022-10-18T21:02:30.298Z,102255.81
2022-10-18T21:04:56.861Z,102264.09
2022-10-18T21:07:23.384Z,102258.78
2022-10-18T21:09:49.972Z,102261.19
2022-10-18T21:12:16.497Z,102261.41
2022-10-18T21:14:42.990Z,102258.47
2022-10-18T21:17:09.604Z,102253.97
2022-10-18T21:19:36.086Z,102257.28
2022-10-18T21:22:02.633Z,102258.38
2022-10-18T21:24:30.160Z,102254.09
2022-10-18T21:26:56.735Z,102261.03
2022-10-18T21:29:26.954Z,102255.38
2022-10-18T21:31:55.596Z,102247.50
2022-10-18T21:34:22.253Z,102250.94
2022-10-18T21:36:48.884Z,102249.69
2022-10-18T21:39:18.694Z,102240.22
2022-10-18T21:41:45.747Z,102235.75
2022-10-18T21:44:12.646Z,102241.28
2022-10-18T21:46:40.244Z,102244.69
2022-10-18T21:49:07.548Z,102249.78
2022-10-18T21:51:34.094Z,102254.56
2022-10-18T21:54:00.816Z,102256.16
2022-10-18T21:56:33.868Z,102252.84
2022-10-18T21:59:01.863Z,102250.22
2022-10-18T22:01:33.990Z,102247.84
2022-10-18T22:04:02.648Z,102231.38
2022-10-18T22:06:32.561Z,102240.66
2022-10-18T22:09:02.197Z,102229.41
2022-10-18T22:11:32.313Z,102237.75
2022-10-18T22:13:59.361Z,102244.53
2022-10-18T22:16:26.565Z,102248.25
2022-10-18T22:18:57.831Z,102246.34
2022-10-18T22:21:24.407Z,102250.34
2022-10-18T22:23:53.173Z,102255.19
2022-10-18T22:26:22.732Z,102253.75
2022-10-18T22:28:58.134Z,102263.63
2022-10-18T22:31:27.396Z,102255.03
2022-10-18T22:33:56.116Z,102248.69
2022-10-18T22:36:23.305Z,102244.41
2022-10-18T22:38:50.032Z,102247.78
2022-10-18T22:41:17.193Z,102244.91
2022-10-18T22:43:43.942Z,102234.72
2022-10-18T22:46:13.324Z,102237.13
2022-10-18T22:48:40.919Z,102245.06
2022-10-18T22:51:08.418Z,102244.63
2022-10-18T22:53:35.950Z,102234.97
2022-10-18T22:56:03.599Z,102229.88
2022-10-18T22:58:30.499Z,102231.69
2022-10-18T23:01:06.104Z,102225.56
2022-10-18T23:03:33.040Z,102217.41
2022-10-18T23:05:59.581Z,102212.25
2022-10-18T23:08:26.710Z,102214.38
2022-10-18T23:10:55.646Z,102223.78
2022-10-18T23:13:23.660Z,102222.16
2022-10-18T23:15:50.798Z,102216.00
2022-10-18T23:18:18.015Z,102227.09
2022-10-18T23:20:45.291Z,102234.06
2022-10-18T23:23:12.665Z,102241.44
2022-10-18T23:25:39.340Z,102236.16
2022-10-18T23:28:06.526Z,102238.91
2022-10-18T23:30:33.822Z,102238.53
2022-10-18T23:33:00.415Z,102243.69
2022-10-18T23:35:29.301Z,102249.84
2022-10-18T23:37:55.802Z,102247.13
2022-10-18T23:40:22.327Z,102257.41
2022-10-18T23:42:48.808Z,102256.50
2022-10-18T23:45:15.357Z,102257.28
2022-10-18T23:47:41.812Z,102250.50
2022-10-18T23:50:08.773Z,102261.81
2022-10-18T23:52:35.338Z,102257.19
2022-10-18T23:55:02.482Z,102252.41
2022-10-18T23:57:29.041Z,102247.66
2022-10-18T23:59:55.514Z,102249.41
